www.cux-wetter.de
Wetterdaten: Sonntag, 09.12.2007
Datum Zeit Temp. A. Feuchte A. Luftdruck Regen Wind Richtung Richtung Sonnenschein Solar Taupunkt Windchill Windben
09.12.2007 00:01 4,5 C 88 % 987,5 hPa 0,0 l/m 24,7 km/h (4 Bft) S 170 0 min 0 W/m 2,7 C -5,5 C 24,7 km/h (4 Bft)
09.12.2007 00:06 4,4 C 88 % 987,5 hPa 0,0 l/m 21,9 km/h (4 Bft) S-SO 160 0 min 0 W/m 2,6 C -4,7 C 21,9 km/h (4 Bft)
09.12.2007 00:11 4,4 C 88 % 987,5 hPa 0,0 l/m 29,5 km/h (5 Bft) S 170 0 min 0 W/m 2,6 C -7,1 C 29,5 km/h (5 Bft)
09.12.2007 00:16 4,3 C 89 % 987,5 hPa 0,0 l/m 30,0 km/h (5 Bft) S 180 0 min 0 W/m 2,7 C -7,4 C 30,0 km/h (5 Bft)
09.12.2007 00:21 4,3 C 89 % 986,5 hPa 0,0 l/m 34,0 km/h (5 Bft) S 170 0 min 0 W/m 2,7 C -8,3 C 34,0 km/h (5 Bft)
09.12.2007 00:25 4,3 C 89 % 986,5 hPa 0,0 l/m 35,0 km/h (5 Bft) S 175 0 min 0 W/m 2,7 C -8,6 C 35,0 km/h (5 Bft)
09.12.2007 00:31 4,3 C 89 % 986,5 hPa 0,0 l/m 26,1 km/h (4 Bft) S 170 0 min 0 W/m 2,7 C -6,2 C 26,1 km/h (4 Bft)
09.12.2007 00:36 4,4 C 89 % 986,5 hPa 0,0 l/m 26,2 km/h (4 Bft) S 175 0 min 0 W/m 2,7 C -6,1 C 26,2 km/h (4 Bft)
09.12.2007 00:41 4,4 C 89 % 986,5 hPa 0,0 l/m 41,2 km/h (6 Bft) S 180 0 min 0 W/m 2,7 C -9,6 C 41,2 km/h (6 Bft)
09.12.2007 00:46 4,4 C 89 % 985,5 hPa 0,0 l/m 33,0 km/h (5 Bft) S 170 0 min 0 W/m 2,7 C -8,0 C 33,0 km/h (5 Bft)
09.12.2007 00:51 4,4 C 90 % 985,5 hPa 0,0 l/m 26,5 km/h (4 Bft) S 170 0 min 0 W/m 2,9 C -6,2 C 26,5 km/h (4 Bft)
09.12.2007 00:56 4,4 C 90 % 985,5 hPa 0,3 l/m 27,3 km/h (5 Bft) S 170 0 min 0 W/m 2,9 C -6,5 C 27,3 km/h (5 Bft)
09.12.2007 01:01 4,3 C 91 % 985,5 hPa 0,0 l/m 21,1 km/h (4 Bft) S-SO 160 0 min 0 W/m 3,0 C -4,5 C 21,1 km/h (4 Bft)
09.12.2007 01:06 4,3 C 91 % 985,5 hPa 0,0 l/m 24,5 km/h (4 Bft) S-SO 165 0 min 0 W/m 3,0 C -5,7 C 24,5 km/h (4 Bft)
09.12.2007 01:11 4,3 C 92 % 985,5 hPa 0,0 l/m 26,0 km/h (4 Bft) S 170 0 min 0 W/m 3,1 C -6,2 C 26,0 km/h (4 Bft)
09.12.2007 01:16 4,3 C 92 % 985,5 hPa 0,0 l/m 30,9 km/h (5 Bft) S 180 0 min 0 W/m 3,1 C -7,6 C 30,9 km/h (5 Bft)
09.12.2007 01:21 4,3 C 92 % 985,5 hPa 0,0 l/m 29,9 km/h (5 Bft) S 180 0 min 0 W/m 3,1 C -7,3 C 29,9 km/h (5 Bft)
09.12.2007 01:26 4,3 C 92 % 984,5 hPa 0,0 l/m 27,2 km/h (5 Bft) S 180 0 min 0 W/m 3,1 C -6,6 C 27,2 km/h (5 Bft)
09.12.2007 01:31 4,3 C 92 % 984,5 hPa 0,3 l/m 27,7 km/h (5 Bft) S 175 0 min 0 W/m 3,1 C -6,7 C 27,7 km/h (5 Bft)
09.12.2007 01:36 4,3 C 92 % 984,5 hPa 0,0 l/m 24,6 km/h (4 Bft) S 175 0 min 0 W/m 3,1 C -5,8 C 24,6 km/h (4 Bft)
09.12.2007 01:41 4,3 C 92 % 984,5 hPa 0,0 l/m 28,9 km/h (5 Bft) S 180 0 min 0 W/m 3,1 C -7,1 C 28,9 km/h (5 Bft)
09.12.2007 01:46 4,3 C 92 % 984,5 hPa 0,3 l/m 22,0 km/h (4 Bft) S 185 0 min 0 W/m 3,1 C -4,9 C 22,0 km/h (4 Bft)
09.12.2007 01:51 4,3 C 92 % 984,5 hPa 0,3 l/m 22,8 km/h (4 Bft) S 180 0 min 0 W/m 3,1 C -5,1 C 22,8 km/h (4 Bft)
09.12.2007 01:56 4,3 C 93 % 984,5 hPa 0,0 l/m 25,3 km/h (4 Bft) S 185 0 min 0 W/m 3,3 C -6,0 C 25,3 km/h (4 Bft)
09.12.2007 02:01 4,1 C 93 % 984,5 hPa 0,0 l/m 26,9 km/h (4 Bft) S 185 0 min 0 W/m 3,1 C -6,8 C 26,9 km/h (4 Bft)
09.12.2007 02:06 4,1 C 93 % 984,5 hPa 0,3 l/m 28,6 km/h (5 Bft) S 180 0 min 0 W/m 3,1 C -7,3 C 28,6 km/h (5 Bft)
09.12.2007 02:11 4,0 C 93 % 984,5 hPa 0,0 l/m 30,1 km/h (5 Bft) S 180 0 min 0 W/m 3,0 C -7,8 C 30,1 km/h (5 Bft)
09.12.2007 02:16 3,9 C 93 % 983,5 hPa 0,0 l/m 25,8 km/h (4 Bft) S 180 0 min 0 W/m 2,9 C -6,7 C 25,8 km/h (4 Bft)
09.12.2007 02:21 3,9 C 94 % 983,5 hPa 0,3 l/m 28,1 km/h (5 Bft) S 175 0 min 0 W/m 3,0 C -7,4 C 28,1 km/h (5 Bft)
09.12.2007 02:26 3,9 C 94 % 983,5 hPa 0,3 l/m 25,7 km/h (4 Bft) S 185 0 min 0 W/m 3,0 C -6,7 C 25,7 km/h (4 Bft)
09.12.2007 02:31 3,9 C 94 % 983,5 hPa 0,0 l/m 32,4 km/h (5 Bft) S 180 0 min 0 W/m 3,0 C -8,5 C 32,4 km/h (5 Bft)
09.12.2007 02:36 3,9 C 94 % 983,5 hPa 0,3 l/m 26,4 km/h (4 Bft) S 190 0 min 0 W/m 3,0 C -6,9 C 26,4 km/h (4 Bft)
09.12.2007 02:41 3,9 C 95 % 983,5 hPa 0,0 l/m 24,3 km/h (4 Bft) S-SO 160 0 min 0 W/m 3,2 C -6,2 C 24,3 km/h (4 Bft)
09.12.2007 02:46 3,9 C 95 % 983,5 hPa 0,0 l/m 27,9 km/h (5 Bft) S-SW 195 0 min 0 W/m 3,2 C -7,3 C 27,9 km/h (5 Bft)
09.12.2007 02:51 3,9 C 95 % 983,5 hPa 0,3 l/m 29,4 km/h (5 Bft) S 170 0 min 0 W/m 3,2 C -7,8 C 29,4 km/h (5 Bft)
09.12.2007 02:56 3,9 C 95 % 982,5 hPa 0,0 l/m 24,1 km/h (4 Bft) S 180 0 min 0 W/m 3,2 C -6,1 C 24,1 km/h (4 Bft)
09.12.2007 03:01 3,9 C 96 % 982,5 hPa 0,0 l/m 25,5 km/h (4 Bft) S 170 0 min 0 W/m 3,3 C -6,6 C 25,5 km/h (4 Bft)
09.12.2007 03:06 3,9 C 96 % 982,5 hPa 0,0 l/m 26,5 km/h (4 Bft) S 175 0 min 0 W/m 3,3 C -6,9 C 26,5 km/h (4 Bft)
09.12.2007 03:11 4,0 C 96 % 982,5 hPa 0,3 l/m 22,8 km/h (4 Bft) S 170 0 min 0 W/m 3,4 C -5,5 C 22,8 km/h (4 Bft)
09.12.2007 03:16 4,0 C 96 % 982,5 hPa 0,0 l/m 29,5 km/h (5 Bft) S 175 0 min 0 W/m 3,4 C -7,6 C 29,5 km/h (5 Bft)
09.12.2007 03:21 4,1 C 96 % 982,5 hPa 0,0 l/m 26,6 km/h (4 Bft) S-SO 165 0 min 0 W/m 3,5 C -6,7 C 26,6 km/h (4 Bft)
09.12.2007 03:26 4,1 C 96 % 982,5 hPa 0,0 l/m 27,7 km/h (5 Bft) S 180 0 min 0 W/m 3,5 C -7,0 C 27,7 km/h (5 Bft)
09.12.2007 03:31 4,1 C 96 % 982,5 hPa 0,0 l/m 22,0 km/h (4 Bft) S 180 0 min 0 W/m 3,5 C -5,1 C 22,0 km/h (4 Bft)
09.12.2007 03:36 4,1 C 96 % 981,5 hPa 0,0 l/m 25,5 km/h (4 Bft) S 180 0 min 0 W/m 3,5 C -6,3 C 25,5 km/h (4 Bft)
09.12.2007 03:41 4,1 C 96 % 981,5 hPa 0,0 l/m 23,8 km/h (4 Bft) S-SW 195 0 min 0 W/m 3,5 C -5,8 C 23,8 km/h (4 Bft)
09.12.2007 03:46 4,1 C 96 % 981,5 hPa 0,0 l/m 22,6 km/h (4 Bft) S-SW 205 0 min 0 W/m 3,5 C -5,3 C 22,6 km/h (4 Bft)
09.12.2007 03:51 4,2 C 96 % 981,5 hPa 0,0 l/m 21,8 km/h (4 Bft) S-SW 210 0 min 0 W/m 3,6 C -4,9 C 21,8 km/h (4 Bft)
09.12.2007 03:56 4,3 C 97 % 981,5 hPa 0,3 l/m 28,0 km/h (5 Bft) S 170 0 min 0 W/m 3,9 C -6,8 C 28,0 km/h (5 Bft)
09.12.2007 04:01 4,3 C 97 % 981,5 hPa 0,0 l/m 22,3 km/h (4 Bft) S 185 0 min 0 W/m 3,9 C -5,0 C 22,3 km/h (4 Bft)
09.12.2007 04:06 4,3 C 97 % 981,5 hPa 0,3 l/m 26,5 km/h (4 Bft) S 180 0 min 0 W/m 3,9 C -6,4 C 26,5 km/h (4 Bft)
09.12.2007 04:11 4,3 C 97 % 981,5 hPa 0,0 l/m 24,3 km/h (4 Bft) S 180 0 min 0 W/m 3,9 C -5,7 C 24,3 km/h (4 Bft)
09.12.2007 04:16 4,4 C 97 % 981,5 hPa 0,0 l/m 26,5 km/h (4 Bft) S-SW 195 0 min 0 W/m 4,0 C -6,2 C 26,5 km/h (4 Bft)
09.12.2007 04:21 4,4 C 97 % 981,5 hPa 0,0 l/m 25,5 km/h (4 Bft) S 175 0 min 0 W/m 4,0 C -5,9 C 25,5 km/h (4 Bft)
09.12.2007 04:26 4,5 C 97 % 981,5 hPa 0,0 l/m 23,6 km/h (4 Bft) S 190 0 min 0 W/m 4,1 C -5,2 C 23,6 km/h (4 Bft)
09.12.2007 04:31 4,6 C 97 % 981,5 hPa 0,0 l/m 19,4 km/h (3 Bft) S-SW 195 0 min 0 W/m 4,2 C -3,4 C 19,4 km/h (3 Bft)
09.12.2007 04:36 4,6 C 97 % 981,5 hPa 0,0 l/m 27,0 km/h (5 Bft) S-SW 195 0 min 0 W/m 4,2 C -6,1 C 27,0 km/h (5 Bft)
09.12.2007 04:41 4,7 C 97 % 980,5 hPa 0,3 l/m 18,0 km/h (3 Bft) S-SW 195 0 min 0 W/m 4,3 C -2,7 C 18,0 km/h (3 Bft)
09.12.2007 04:46 4,7 C 97 % 980,5 hPa 0,3 l/m 24,8 km/h (4 Bft) S-SW 205 0 min 0 W/m 4,3 C -5,3 C 24,8 km/h (4 Bft)
09.12.2007 04:51 4,9 C 97 % 980,5 hPa 0,0 l/m 28,3 km/h (5 Bft) S-SW 205 0 min 0 W/m 4,5 C -6,1 C 28,3 km/h (5 Bft)
09.12.2007 04:56 4,9 C 97 % 980,5 hPa 0,0 l/m 30,2 km/h (5 Bft) S-SW 205 0 min 0 W/m 4,5 C -6,6 C 30,2 km/h (5 Bft)
09.12.2007 05:01 5,1 C 98 % 980,5 hPa 0,3 l/m 26,6 km/h (4 Bft) S-SW 195 0 min 0 W/m 4,8 C -5,3 C 26,6 km/h (4 Bft)
09.12.2007 05:06 5,2 C 98 % 980,5 hPa 0,0 l/m 26,7 km/h (4 Bft) SW 225 0 min 0 W/m 4,9 C -5,2 C 26,7 km/h (4 Bft)
09.12.2007 05:11 5,2 C 98 % 980,5 hPa 0,0 l/m 22,6 km/h (4 Bft) SW 215 0 min 0 W/m 4,9 C -3,9 C 22,6 km/h (4 Bft)
09.12.2007 05:16 5,3 C 98 % 980,5 hPa 0,0 l/m 23,6 km/h (4 Bft) SW 230 0 min 0 W/m 5,0 C -4,1 C 23,6 km/h (4 Bft)
09.12.2007 05:21 5,4 C 98 % 980,5 hPa 0,0 l/m 26,1 km/h (4 Bft) SW 215 0 min 0 W/m 5,1 C -4,7 C 26,1 km/h (4 Bft)
09.12.2007 05:26 5,5 C 98 % 980,5 hPa 0,0 l/m 29,3 km/h (5 Bft) SW 215 0 min 0 W/m 5,2 C -5,5 C 29,3 km/h (5 Bft)
09.12.2007 05:31 5,6 C 98 % 980,5 hPa 0,0 l/m 22,6 km/h (4 Bft) SW 220 0 min 0 W/m 5,3 C -3,3 C 22,6 km/h (4 Bft)
09.12.2007 05:36 5,6 C 98 % 980,5 hPa 0,0 l/m 18,4 km/h (3 Bft) SW 230 0 min 0 W/m 5,3 C -1,8 C 18,4 km/h (3 Bft)
09.12.2007 05:41 5,6 C 98 % 980,5 hPa 0,0 l/m 23,0 km/h (4 Bft) SW 225 0 min 0 W/m 5,3 C -3,5 C 23,0 km/h (4 Bft)
09.12.2007 05:46 5,7 C 98 % 980,5 hPa 0,0 l/m 27,3 km/h (5 Bft) SW 220 0 min 0 W/m 5,4 C -4,7 C 27,3 km/h (5 Bft)
09.12.2007 05:51 5,8 C 98 % 980,5 hPa 0,0 l/m 19,7 km/h (3 Bft) SW 230 0 min 0 W/m 5,5 C -2,0 C 19,7 km/h (3 Bft)
09.12.2007 05:56 5,8 C 98 % 980,5 hPa 0,0 l/m 19,3 km/h (3 Bft) SW 220 0 min 0 W/m 5,5 C -1,9 C 19,3 km/h (3 Bft)
09.12.2007 06:01 5,8 C 98 % 980,5 hPa 0,0 l/m 19,5 km/h (3 Bft) SW 225 0 min 0 W/m 5,5 C -1,9 C 19,5 km/h (3 Bft)
09.12.2007 06:06 6,0 C 98 % 980,5 hPa 0,0 l/m 19,1 km/h (3 Bft) W-SW 240 0 min 0 W/m 5,7 C -1,5 C 19,1 km/h (3 Bft)
09.12.2007 06:11 6,0 C 98 % 980,5 hPa 0,0 l/m 19,6 km/h (3 Bft) SW 230 0 min 0 W/m 5,7 C -1,7 C 19,6 km/h (3 Bft)
09.12.2007 06:16 6,1 C 98 % 980,5 hPa 0,0 l/m 19,6 km/h (3 Bft) SW 230 0 min 0 W/m 5,8 C -1,6 C 19,6 km/h (3 Bft)
09.12.2007 06:21 6,2 C 98 % 980,5 hPa 0,0 l/m 23,3 km/h (4 Bft) SW 235 0 min 0 W/m 5,9 C -2,8 C 23,3 km/h (4 Bft)
09.12.2007 06:26 6,3 C 98 % 980,5 hPa 0,0 l/m 23,3 km/h (4 Bft) SW 235 0 min 0 W/m 6,0 C -2,6 C 23,3 km/h (4 Bft)
09.12.2007 06:31 6,4 C 98 % 980,5 hPa 0,0 l/m 23,3 km/h (4 Bft) SW 235 0 min 0 W/m 6,1 C -2,5 C 23,3 km/h (4 Bft)
09.12.2007 06:36 6,4 C 98 % 980,5 hPa 0,0 l/m 23,3 km/h (4 Bft) SW 235 0 min 0 W/m 6,1 C -2,5 C 23,3 km/h (4 Bft)
09.12.2007 06:41 6,5 C 98 % 981,5 hPa 0,0 l/m 23,3 km/h (4 Bft) SW 235 0 min 0 W/m 6,2 C -2,4 C 23,3 km/h (4 Bft)
09.12.2007 06:46 6,6 C 98 % 981,5 hPa 0,0 l/m 23,3 km/h (4 Bft) SW 235 0 min 0 W/m 6,3 C -2,2 C 23,3 km/h (4 Bft)
09.12.2007 06:51 6,6 C 98 % 981,5 hPa 0,0 l/m 23,3 km/h (4 Bft) SW 235 0 min 0 W/m 6,3 C -2,2 C 23,3 km/h (4 Bft)
09.12.2007 06:56 6,6 C 98 % 981,5 hPa 0,0 l/m 23,3 km/h (4 Bft) SW 235 0 min 0 W/m 6,3 C -2,2 C 23,3 km/h (4 Bft)
09.12.2007 07:01 6,7 C 98 % 981,5 hPa 0,0 l/m 23,3 km/h (4 Bft) SW 235 0 min 0 W/m 6,4 C -2,1 C 23,3 km/h (4 Bft)
09.12.2007 07:06 6,7 C 98 % 981,5 hPa 0,0 l/m 17,6 km/h (3 Bft) W-SW 245 0 min 0 W/m 6,4 C -0,0 C 17,6 km/h (3 Bft)
09.12.2007 07:11 6,7 C 98 % 981,5 hPa 0,0 l/m 17,6 km/h (3 Bft) W-SW 245 0 min 0 W/m 6,4 C -0,0 C 17,6 km/h (3 Bft)
09.12.2007 07:16 6,8 C 98 % 981,5 hPa 0,0 l/m 17,6 km/h (3 Bft) W-SW 245 0 min 0 W/m 6,5 C 0,1 C 17,6 km/h (3 Bft)
09.12.2007 07:21 6,8 C 98 % 981,5 hPa 0,0 l/m 17,6 km/h (3 Bft) W-SW 245 0 min 0 W/m 6,5 C 0,1 C 17,6 km/h (3 Bft)
09.12.2007 07:26 6,8 C 98 % 981,5 hPa 0,0 l/m 17,6 km/h (3 Bft) W-SW 245 0 min 0 W/m 6,5 C 0,1 C 17,6 km/h (3 Bft)
09.12.2007 07:31 6,8 C 98 % 981,5 hPa 0,0 l/m 17,6 km/h (3 Bft) W-SW 245 0 min 0 W/m 6,5 C 0,1 C 17,6 km/h (3 Bft)
09.12.2007 07:36 6,8 C 98 % 981,5 hPa 0,0 l/m 17,6 km/h (3 Bft) W-SW 255 0 min 0 W/m 6,5 C 0,1 C 17,6 km/h (3 Bft)
09.12.2007 07:41 6,8 C 98 % 981,5 hPa 0,0 l/m 17,6 km/h (3 Bft) W-SW 255 0 min 0 W/m 6,5 C 0,1 C 17,6 km/h (3 Bft)
09.12.2007 07:46 6,8 C 98 % 981,5 hPa 0,0 l/m 18,8 km/h (3 Bft) W-SW 250 0 min 0 W/m 6,5 C -0,4 C 18,8 km/h (3 Bft)
09.12.2007 07:51 6,8 C 98 % 981,5 hPa 0,0 l/m 18,8 km/h (3 Bft) W-SW 250 0 min 0 W/m 6,5 C -0,4 C 18,8 km/h (3 Bft)
09.12.2007 07:56 6,8 C 98 % 981,5 hPa 0,0 l/m 26,2 km/h (4 Bft) W-SW 250 0 min 0 W/m 6,5 C -2,9 C 26,2 km/h (4 Bft)
09.12.2007 08:01 6,7 C 98 % 981,5 hPa 0,0 l/m 18,0 km/h (3 Bft) W-SW 250 0 min 0 W/m 6,4 C -0,2 C 18,0 km/h (3 Bft)
09.12.2007 08:06 6,7 C 98 % 981,5 hPa 0,0 l/m 20,3 km/h (4 Bft) W-SW 245 0 min 0 W/m 6,4 C -1,1 C 20,3 km/h (4 Bft)
09.12.2007 08:11 6,7 C 98 % 982,5 hPa 0,0 l/m 21,5 km/h (4 Bft) W-SW 245 0 min 0 W/m 6,4 C -1,5 C 21,5 km/h (4 Bft)
09.12.2007 08:16 6,6 C 98 % 982,5 hPa 0,0 l/m 21,5 km/h (4 Bft) W-SW 245 0 min 0 W/m 6,3 C -1,6 C 21,5 km/h (4 Bft)
09.12.2007 08:21 6,6 C 98 % 982,5 hPa 0,0 l/m 21,5 km/h (4 Bft) W-SW 245 0 min 0 W/m 6,3 C -1,6 C 21,5 km/h (4 Bft)
09.12.2007 08:26 6,6 C 98 % 982,5 hPa 0,0 l/m 21,5 km/h (4 Bft) W-SW 245 0 min 0 W/m 6,3 C -1,6 C 21,5 km/h (4 Bft)
09.12.2007 08:31 6,6 C 98 % 982,5 hPa 0,0 l/m 21,5 km/h (4 Bft) W-SW 245 0 min 0 W/m 6,3 C -1,6 C 21,5 km/h (4 Bft)
09.12.2007 08:36 6,7 C 98 % 982,5 hPa 0,0 l/m 21,5 km/h (4 Bft) W-SW 245 0 min 0 W/m 6,4 C -1,5 C 21,5 km/h (4 Bft)
09.12.2007 08:41 6,7 C 98 % 982,5 hPa 0,0 l/m 21,5 km/h (4 Bft) W-SW 245 0 min 0 W/m 6,4 C -1,5 C 21,5 km/h (4 Bft)
09.12.2007 08:46 6,8 C 98 % 982,5 hPa 0,0 l/m 21,5 km/h (4 Bft) W-SW 245 0 min 0 W/m 6,5 C -1,4 C 21,5 km/h (4 Bft)
09.12.2007 08:51 6,9 C 98 % 982,5 hPa 0,0 l/m 16,4 km/h (3 Bft) W-SW 240 0 min 0 W/m 6,6 C 0,7 C 16,4 km/h (3 Bft)
09.12.2007 08:56 7,0 C 98 % 982,5 hPa 0,0 l/m 16,4 km/h (3 Bft) W-SW 240 0 min 0 W/m 6,7 C 0,9 C 16,4 km/h (3 Bft)
09.12.2007 09:01 7,1 C 98 % 982,5 hPa 0,0 l/m 16,4 km/h (3 Bft) W-SW 240 0 min 0 W/m 6,8 C 1,0 C 16,4 km/h (3 Bft)
09.12.2007 09:06 7,2 C 98 % 982,5 hPa 0,0 l/m 16,4 km/h (3 Bft) W-SW 240 0 min 0 W/m 6,9 C 1,1 C 16,4 km/h (3 Bft)
09.12.2007 09:11 7,2 C 98 % 982,5 hPa 0,0 l/m 16,4 km/h (3 Bft) W-SW 240 0 min 0 W/m 6,9 C 1,1 C 16,4 km/h (3 Bft)
09.12.2007 09:16 7,3 C 98 % 982,5 hPa 0,0 l/m 16,4 km/h (3 Bft) W-SW 240 0 min 0 W/m 7,0 C 1,2 C 16,4 km/h (3 Bft)
09.12.2007 09:21 7,4 C 98 % 982,5 hPa 0,0 l/m 22,3 km/h (4 Bft) W-SW 245 0 min 0 W/m 7,1 C -0,9 C 22,3 km/h (4 Bft)
09.12.2007 09:26 7,5 C 99 % 983,5 hPa 0,0 l/m 17,6 km/h (3 Bft) W-SW 250 0 min 0 W/m 7,4 C 1,0 C 17,6 km/h (3 Bft)
09.12.2007 09:31 8,1 C 99 % 983,5 hPa 0,0 l/m 23,1 km/h (4 Bft) W-SW 245 0 min 0 W/m 8,0 C -0,2 C 23,1 km/h (4 Bft)
09.12.2007 09:36 8,6 C 94 % 983,5 hPa 0,0 l/m 23,1 km/h (4 Bft) W-SW 245 0 min 0 W/m 7,7 C 0,5 C 23,1 km/h (4 Bft)
09.12.2007 09:41 9,0 C 92 % 983,5 hPa 0,0 l/m 23,1 km/h (4 Bft) W-SW 250 0 min 0 W/m 7,8 C 1,0 C 23,1 km/h (4 Bft)
09.12.2007 09:46 9,1 C 90 % 983,5 hPa 0,0 l/m 21,5 km/h (4 Bft) W-SW 245 0 min 0 W/m 7,5 C 1,6 C 21,5 km/h (4 Bft)
09.12.2007 09:51 9,3 C 90 % 983,5 hPa 0,0 l/m 14,6 km/h (3 Bft) W-SW 250 0 min 0 W/m 7,7 C 4,5 C 14,6 km/h (3 Bft)
09.12.2007 09:56 9,6 C 88 % 983,5 hPa 0,0 l/m 15,5 km/h (3 Bft) W-SW 245 0 min 0 W/m 7,7 C 4,4 C 15,5 km/h (3 Bft)
09.12.2007 10:01 9,6 C 87 % 983,5 hPa 0,0 l/m 21,0 km/h (4 Bft) W-SW 245 0 min 0 W/m 7,5 C 2,4 C 21,0 km/h (4 Bft)
09.12.2007 10:06 9,4 C 87 % 983,5 hPa 0,0 l/m 20,1 km/h (4 Bft) W-SW 250 0 min 0 W/m 7,3 C 2,5 C 20,1 km/h (4 Bft)
09.12.2007 10:11 9,2 C 88 % 983,5 hPa 0,0 l/m 22,6 km/h (4 Bft) W-SW 255 0 min 0 W/m 7,3 C 1,4 C 22,6 km/h (4 Bft)
09.12.2007 10:16 9,2 C 88 % 983,5 hPa 0,0 l/m 21,0 km/h (4 Bft) W-SW 250 0 min 0 W/m 7,3 C 1,9 C 21,0 km/h (4 Bft)
09.12.2007 10:21 9,2 C 88 % 983,5 hPa 0,0 l/m 23,5 km/h (4 Bft) W-SW 245 0 min 0 W/m 7,3 C 1,2 C 23,5 km/h (4 Bft)
09.12.2007 10:26 9,1 C 87 % 983,5 hPa 0,0 l/m 21,5 km/h (4 Bft) W-SW 245 0 min 0 W/m 7,1 C 1,6 C 21,5 km/h (4 Bft)
09.12.2007 10:31 9,2 C 86 % 983,5 hPa 0,0 l/m 21,5 km/h (4 Bft) W-SW 245 0 min 0 W/m 7,0 C 1,8 C 21,5 km/h (4 Bft)
09.12.2007 10:36 9,0 C 86 % 983,5 hPa 0,0 l/m 24,3 km/h (4 Bft) W-SW 250 0 min 0 W/m 6,8 C 0,7 C 24,3 km/h (4 Bft)
09.12.2007 10:41 8,9 C 87 % 984,5 hPa 0,0 l/m 25,9 km/h (4 Bft) W-SW 250 0 min 0 W/m 6,9 C 0,1 C 25,9 km/h (4 Bft)
09.12.2007 10:46 8,9 C 87 % 984,5 hPa 0,0 l/m 22,9 km/h (4 Bft) W-SW 255 0 min 0 W/m 6,9 C 0,9 C 22,9 km/h (4 Bft)
09.12.2007 10:51 8,5 C 87 % 984,5 hPa 0,0 l/m 20,8 km/h (4 Bft) W-SW 250 0 min 0 W/m 6,5 C 1,1 C 20,8 km/h (4 Bft)
09.12.2007 10:56 8,2 C 89 % 984,5 hPa 0,0 l/m 22,0 km/h (4 Bft) W-SW 250 0 min 0 W/m 6,5 C 0,3 C 22,0 km/h (4 Bft)
09.12.2007 11:01 7,9 C 90 % 984,5 hPa 0,0 l/m 21,8 km/h (4 Bft) W-SW 255 0 min 0 W/m 6,4 C -0,0 C 21,8 km/h (4 Bft)
09.12.2007 11:06 7,8 C 91 % 984,5 hPa 0,0 l/m 20,1 km/h (4 Bft) W-SW 250 0 min 0 W/m 6,4 C 0,4 C 20,1 km/h (4 Bft)
09.12.2007 11:11 7,8 C 92 % 984,5 hPa 0,0 l/m 16,5 km/h (3 Bft) W-SW 245 0 min 0 W/m 6,6 C 1,8 C 16,5 km/h (3 Bft)
09.12.2007 11:16 7,8 C 93 % 984,5 hPa 0,0 l/m 22,5 km/h (4 Bft) W-SW 250 0 min 0 W/m 6,7 C -0,4 C 22,5 km/h (4 Bft)
09.12.2007 11:21 7,8 C 92 % 984,5 hPa 0,0 l/m 29,0 km/h (5 Bft) W-SW 255 0 min 0 W/m 6,6 C -2,2 C 29,0 km/h (5 Bft)
09.12.2007 11:26 7,8 C 92 % 984,5 hPa 0,0 l/m 27,9 km/h (5 Bft) W-SW 250 0 min 0 W/m 6,6 C -1,9 C 27,9 km/h (5 Bft)
09.12.2007 11:31 7,8 C 92 % 984,5 hPa 0,0 l/m 26,1 km/h (4 Bft) W-SW 250 0 min 0 W/m 6,6 C -1,5 C 26,1 km/h (4 Bft)
09.12.2007 11:36 7,8 C 92 % 984,5 hPa 0,0 l/m 31,3 km/h (5 Bft) W-SW 255 0 min 0 W/m 6,6 C -2,7 C 31,3 km/h (5 Bft)
09.12.2007 11:41 8,0 C 92 % 984,5 hPa 0,0 l/m 26,4 km/h (4 Bft) W-SW 255 0 min 0 W/m 6,8 C -1,3 C 26,4 km/h (4 Bft)
09.12.2007 11:46 8,0 C 92 % 984,5 hPa 0,0 l/m 26,4 km/h (4 Bft) W-SW 255 0 min 0 W/m 6,8 C -1,3 C 26,4 km/h (4 Bft)
09.12.2007 11:51 8,0 C 92 % 984,5 hPa 0,0 l/m 22,7 km/h (4 Bft) W-SW 250 0 min 0 W/m 6,8 C -0,2 C 22,7 km/h (4 Bft)
09.12.2007 11:56 8,0 C 92 % 984,5 hPa 0,0 l/m 29,3 km/h (5 Bft) W-SW 250 0 min 0 W/m 6,8 C -2,0 C 29,3 km/h (5 Bft)
09.12.2007 12:01 8,0 C 92 % 984,5 hPa 0,0 l/m 30,5 km/h (5 Bft) W-SW 245 0 min 0 W/m 6,8 C -2,3 C 30,5 km/h (5 Bft)
09.12.2007 12:06 7,8 C 92 % 984,5 hPa 0,0 l/m 28,5 km/h (5 Bft) W-SW 255 0 min 0 W/m 6,6 C -2,1 C 28,5 km/h (5 Bft)
09.12.2007 12:11 7,8 C 93 % 984,5 hPa 0,0 l/m 30,2 km/h (5 Bft) W-SW 250 0 min 0 W/m 6,7 C -2,5 C 30,2 km/h (5 Bft)
09.12.2007 12:16 8,0 C 93 % 984,5 hPa 0,0 l/m 30,2 km/h (5 Bft) W-SW 250 0 min 0 W/m 6,9 C -2,2 C 30,2 km/h (5 Bft)
09.12.2007 12:21 8,1 C 92 % 984,5 hPa 0,0 l/m 31,1 km/h (5 Bft) W-SW 245 0 min 0 W/m 6,9 C -2,3 C 31,1 km/h (5 Bft)
09.12.2007 12:26 7,9 C 92 % 984,5 hPa 0,0 l/m 30,7 km/h (5 Bft) W-SW 245 0 min 0 W/m 6,7 C -2,5 C 30,7 km/h (5 Bft)
09.12.2007 12:31 7,9 C 92 % 984,5 hPa 0,0 l/m 27,5 km/h (5 Bft) W-SW 250 0 min 0 W/m 6,7 C -1,7 C 27,5 km/h (5 Bft)
09.12.2007 12:36 7,8 C 92 % 984,5 hPa 0,0 l/m 27,2 km/h (5 Bft) W-SW 250 0 min 0 W/m 6,6 C -1,7 C 27,2 km/h (5 Bft)
09.12.2007 12:41 7,8 C 92 % 984,5 hPa 0,0 l/m 25,8 km/h (4 Bft) W-SW 255 0 min 0 W/m 6,6 C -1,4 C 25,8 km/h (4 Bft)
09.12.2007 12:46 7,9 C 93 % 985,5 hPa 0,0 l/m 20,5 km/h (4 Bft) W-SW 245 0 min 0 W/m 6,8 C 0,4 C 20,5 km/h (4 Bft)
09.12.2007 12:51 8,0 C 93 % 985,5 hPa 0,0 l/m 26,2 km/h (4 Bft) W-SW 255 0 min 0 W/m 6,9 C -1,2 C 26,2 km/h (4 Bft)
09.12.2007 12:56 8,0 C 92 % 985,5 hPa 0,0 l/m 21,9 km/h (4 Bft) W-SW 245 0 min 0 W/m 6,8 C 0,1 C 21,9 km/h (4 Bft)
09.12.2007 13:01 7,9 C 92 % 985,5 hPa 0,0 l/m 27,3 km/h (5 Bft) W-SW 250 0 min 0 W/m 6,7 C -1,6 C 27,3 km/h (5 Bft)
09.12.2007 13:06 8,0 C 92 % 985,5 hPa 0,0 l/m 30,3 km/h (5 Bft) W-SW 250 0 min 0 W/m 6,8 C -2,2 C 30,3 km/h (5 Bft)
09.12.2007 13:11 8,0 C 91 % 985,5 hPa 0,0 l/m 21,7 km/h (4 Bft) W-SW 250 0 min 0 W/m 6,6 C 0,1 C 21,7 km/h (4 Bft)
09.12.2007 13:16 8,0 C 91 % 985,5 hPa 0,0 l/m 18,5 km/h (3 Bft) W-SW 250 0 min 0 W/m 6,6 C 1,3 C 18,5 km/h (3 Bft)
09.12.2007 13:21 8,0 C 91 % 985,5 hPa 0,0 l/m 23,8 km/h (4 Bft) W-SW 245 0 min 0 W/m 6,6 C -0,5 C 23,8 km/h (4 Bft)
09.12.2007 13:26 8,1 C 91 % 985,5 hPa 0,0 l/m 23,5 km/h (4 Bft) W-SW 250 0 min 0 W/m 6,7 C -0,3 C 23,5 km/h (4 Bft)
09.12.2007 13:31 8,1 C 90 % 985,5 hPa 0,0 l/m 24,3 km/h (4 Bft) W-SW 250 0 min 0 W/m 6,6 C -0,5 C 24,3 km/h (4 Bft)
09.12.2007 13:36 8,1 C 90 % 985,5 hPa 0,0 l/m 21,0 km/h (4 Bft) W-SW 255 0 min 0 W/m 6,6 C 0,5 C 21,0 km/h (4 Bft)
09.12.2007 13:41 8,0 C 90 % 985,5 hPa 0,0 l/m 23,7 km/h (4 Bft) W-SW 245 0 min 0 W/m 6,5 C -0,5 C 23,7 km/h (4 Bft)
09.12.2007 13:46 8,0 C 90 % 985,5 hPa 0,0 l/m 23,9 km/h (4 Bft) W-SW 250 0 min 0 W/m 6,5 C -0,6 C 23,9 km/h (4 Bft)
09.12.2007 13:51 8,0 C 89 % 985,5 hPa 0,0 l/m 26,3 km/h (4 Bft) W-SW 250 0 min 0 W/m 6,3 C -1,2 C 26,3 km/h (4 Bft)
09.12.2007 13:56 8,0 C 90 % 985,5 hPa 0,0 l/m 20,1 km/h (4 Bft) W-SW 250 0 min 0 W/m 6,5 C 0,7 C 20,1 km/h (4 Bft)
09.12.2007 14:01 7,8 C 90 % 985,5 hPa 0,0 l/m 16,2 km/h (3 Bft) W-SW 245 0 min 0 W/m 6,3 C 1,9 C 16,2 km/h (3 Bft)
09.12.2007 14:06 8,0 C 90 % 985,5 hPa 0,0 l/m 20,8 km/h (4 Bft) W-SW 245 0 min 0 W/m 6,5 C 0,4 C 20,8 km/h (4 Bft)
09.12.2007 14:11 8,0 C 90 % 985,5 hPa 0,0 l/m 20,8 km/h (4 Bft) W-SW 245 0 min 0 W/m 6,5 C 0,4 C 20,8 km/h (4 Bft)
09.12.2007 14:16 8,0 C 89 % 985,5 hPa 0,0 l/m 22,5 km/h (4 Bft) W-SW 240 0 min 0 W/m 6,3 C -0,1 C 22,5 km/h (4 Bft)
09.12.2007 14:21 8,0 C 89 % 985,5 hPa 0,0 l/m 18,8 km/h (3 Bft) W-SW 245 0 min 0 W/m 6,3 C 1,1 C 18,8 km/h (3 Bft)
09.12.2007 14:26 8,0 C 89 % 985,5 hPa 0,0 l/m 21,1 km/h (4 Bft) W-SW 240 0 min 0 W/m 6,3 C 0,3 C 21,1 km/h (4 Bft)
09.12.2007 14:31 7,9 C 88 % 986,5 hPa 0,0 l/m 21,1 km/h (4 Bft) W-SW 240 0 min 0 W/m 6,0 C 0,2 C 21,1 km/h (4 Bft)
09.12.2007 14:36 7,8 C 88 % 986,5 hPa 0,0 l/m 21,0 km/h (4 Bft) W 260 0 min 0 W/m 5,9 C 0,1 C 21,0 km/h (4 Bft)
09.12.2007 14:41 7,8 C 88 % 986,5 hPa 0,0 l/m 27,0 km/h (5 Bft) W-SW 250 0 min 0 W/m 5,9 C -1,7 C 27,0 km/h (5 Bft)
09.12.2007 14:46 7,7 C 88 % 986,5 hPa 0,0 l/m 12,3 km/h (2 Bft) W-SW 240 0 min 0 W/m 5,8 C 3,7 C 12,3 km/h (2 Bft)
09.12.2007 14:51 7,7 C 88 % 986,5 hPa 0,0 l/m 16,0 km/h (3 Bft) W-SW 240 0 min 0 W/m 5,8 C 1,9 C 16,0 km/h (3 Bft)
09.12.2007 14:56 7,5 C 89 % 986,5 hPa 0,0 l/m 20,1 km/h (4 Bft) SW 235 0 min 0 W/m 5,8 C 0,0 C 20,1 km/h (4 Bft)
09.12.2007 15:01 7,5 C 89 % 986,5 hPa 0,0 l/m 13,0 km/h (3 Bft) SW 230 0 min 0 W/m 5,8 C 3,1 C 13,0 km/h (3 Bft)
09.12.2007 15:06 7,3 C 90 % 986,5 hPa 0,0 l/m 18,3 km/h (3 Bft) SW 220 0 min 0 W/m 5,8 C 0,4 C 18,3 km/h (3 Bft)
09.12.2007 15:11 7,2 C 90 % 986,5 hPa 0,0 l/m 12,5 km/h (2 Bft) SW 225 0 min 0 W/m 5,7 C 3,0 C 12,5 km/h (2 Bft)
09.12.2007 15:16 7,2 C 90 % 986,5 hPa 0,0 l/m 12,8 km/h (3 Bft) SW 220 0 min 0 W/m 5,7 C 2,8 C 12,8 km/h (3 Bft)
09.12.2007 15:21 7,2 C 90 % 986,5 hPa 0,0 l/m 12,8 km/h (3 Bft) SW 220 0 min 0 W/m 5,7 C 2,8 C 12,8 km/h (3 Bft)
09.12.2007 15:26 7,0 C 90 % 986,5 hPa 0,0 l/m 15,2 km/h (3 Bft) SW 220 0 min 0 W/m 5,5 C 1,4 C 15,2 km/h (3 Bft)
09.12.2007 15:31 6,8 C 91 % 986,5 hPa 0,0 l/m 12,0 km/h (2 Bft) SW 220 0 min 0 W/m 5,4 C 2,8 C 12,0 km/h (2 Bft)
09.12.2007 15:36 6,8 C 91 % 986,5 hPa 0,0 l/m 10,7 km/h (2 Bft) S-SW 210 0 min 0 W/m 5,4 C 3,6 C 10,7 km/h (2 Bft)
09.12.2007 15:41 6,7 C 91 % 986,5 hPa 0,0 l/m 12,0 km/h (2 Bft) S-SW 210 0 min 0 W/m 5,3 C 2,7 C 12,0 km/h (2 Bft)
09.12.2007 15:46 6,7 C 91 % 986,5 hPa 0,0 l/m 11,0 km/h (2 Bft) SW 215 0 min 0 W/m 5,3 C 3,3 C 11,0 km/h (2 Bft)
09.12.2007 15:51 6,7 C 92 % 986,5 hPa 0,0 l/m 11,0 km/h (2 Bft) SW 215 0 min 0 W/m 5,5 C 3,3 C 11,0 km/h (2 Bft)
09.12.2007 15:56 6,7 C 92 % 986,5 hPa 0,0 l/m 11,0 km/h (2 Bft) SW 215 0 min 0 W/m 5,5 C 3,3 C 11,0 km/h (2 Bft)
09.12.2007 16:01 6,8 C 92 % 986,5 hPa 0,0 l/m 13,6 km/h (3 Bft) S-SW 205 0 min 0 W/m 5,6 C 2,0 C 13,6 km/h (3 Bft)
09.12.2007 16:06 6,8 C 92 % 986,5 hPa 0,0 l/m 11,8 km/h (2 Bft) S-SW 205 0 min 0 W/m 5,6 C 2,9 C 11,8 km/h (2 Bft)
09.12.2007 16:11 6,8 C 92 % 986,5 hPa 0,0 l/m 15,7 km/h (3 Bft) S-SW 205 0 min 0 W/m 5,6 C 0,9 C 15,7 km/h (3 Bft)
09.12.2007 16:16 6,7 C 92 % 986,5 hPa 0,0 l/m 12,2 km/h (2 Bft) S-SW 210 0 min 0 W/m 5,5 C 2,6 C 12,2 km/h (2 Bft)
09.12.2007 16:21 6,6 C 92 % 986,5 hPa 0,0 l/m 10,7 km/h (2 Bft) S-SW 205 0 min 0 W/m 5,4 C 3,4 C 10,7 km/h (2 Bft)
09.12.2007 16:26 6,5 C 91 % 986,5 hPa 0,0 l/m 7,5 km/h (2 Bft) S-SW 195 0 min 0 W/m 5,1 C 5,6 C 7,5 km/h (2 Bft)
09.12.2007 16:31 6,4 C 91 % 986,5 hPa 0,0 l/m 11,1 km/h (2 Bft) S-SW 205 0 min 0 W/m 5,0 C 2,9 C 11,1 km/h (2 Bft)
09.12.2007 16:36 6,3 C 92 % 986,5 hPa 0,0 l/m 9,8 km/h (2 Bft) SW 220 0 min 0 W/m 5,1 C 3,6 C 9,8 km/h (2 Bft)
09.12.2007 16:41 6,2 C 92 % 986,5 hPa 0,0 l/m 10,7 km/h (2 Bft) S-SW 205 0 min 0 W/m 5,0 C 2,9 C 10,7 km/h (2 Bft)
09.12.2007 16:46 6,2 C 92 % 986,5 hPa 0,0 l/m 7,8 km/h (2 Bft) S-SW 205 0 min 0 W/m 5,0 C 5,0 C 7,8 km/h (2 Bft)
09.12.2007 16:51 6,1 C 92 % 986,5 hPa 0,0 l/m 4,2 km/h (1 Bft) S 175 0 min 0 W/m 4,9 C 6,1 C 4,2 km/h (1 Bft)
09.12.2007 16:56 6,0 C 92 % 986,5 hPa 0,0 l/m 5,9 km/h (2 Bft) S-SO 160 0 min 0 W/m 4,8 C 6,0 C 5,9 km/h (2 Bft)
09.12.2007 17:01 6,0 C 92 % 986,5 hPa 0,0 l/m 5,7 km/h (2 Bft) S-SO 155 0 min 0 W/m 4,8 C 6,0 C 5,7 km/h (2 Bft)
09.12.2007 17:06 5,8 C 92 % 987,5 hPa 0,0 l/m 5,8 km/h (2 Bft) S-SO 155 0 min 0 W/m 4,6 C 5,8 C 5,8 km/h (2 Bft)
09.12.2007 17:11 5,7 C 92 % 987,5 hPa 0,0 l/m 5,6 km/h (2 Bft) S-SO 160 0 min 0 W/m 4,5 C 5,7 C 5,6 km/h (2 Bft)
09.12.2007 17:16 5,6 C 92 % 987,5 hPa 0,0 l/m 6,5 km/h (2 Bft) S-SO 160 0 min 0 W/m 4,4 C 5,5 C 6,5 km/h (2 Bft)
09.12.2007 17:21 5,4 C 92 % 987,5 hPa 0,0 l/m 3,9 km/h (1 Bft) SO 140 0 min 0 W/m 4,2 C 5,4 C 3,9 km/h (1 Bft)
09.12.2007 17:26 5,4 C 92 % 987,5 hPa 0,0 l/m 5,5 km/h (2 Bft) S-SO 160 0 min 0 W/m 4,2 C 5,4 C 5,5 km/h (2 Bft)
09.12.2007 17:31 5,2 C 92 % 987,5 hPa 0,0 l/m 4,8 km/h (1 Bft) S-SO 165 0 min 0 W/m 4,0 C 5,2 C 4,8 km/h (1 Bft)
09.12.2007 17:36 5,2 C 93 % 987,5 hPa 0,0 l/m 4,5 km/h (1 Bft) S-SO 165 0 min 0 W/m 4,2 C 5,2 C 4,5 km/h (1 Bft)
09.12.2007 17:41 5,2 C 93 % 987,5 hPa 0,0 l/m 5,1 km/h (1 Bft) S-SO 165 0 min 0 W/m 4,2 C 5,2 C 5,1 km/h (1 Bft)
09.12.2007 17:46 5,2 C 93 % 987,5 hPa 0,0 l/m 5,1 km/h (1 Bft) S-SO 165 0 min 0 W/m 4,2 C 5,2 C 5,1 km/h (1 Bft)
09.12.2007 17:51 5,2 C 93 % 987,5 hPa 0,0 l/m 6,6 km/h (2 Bft) S 170 0 min 0 W/m 4,2 C 5,0 C 6,6 km/h (2 Bft)
09.12.2007 17:56 5,2 C 94 % 987,5 hPa 0,0 l/m 7,7 km/h (2 Bft) S 175 0 min 0 W/m 4,3 C 4,1 C 7,7 km/h (2 Bft)
09.12.2007 18:01 5,2 C 94 % 987,5 hPa 0,0 l/m 7,7 km/h (2 Bft) S 180 0 min 0 W/m 4,3 C 4,1 C 7,7 km/h (2 Bft)
09.12.2007 18:06 5,2 C 94 % 987,5 hPa 0,0 l/m 9,2 km/h (2 Bft) S 175 0 min 0 W/m 4,3 C 2,9 C 9,2 km/h (2 Bft)
09.12.2007 18:11 5,1 C 94 % 987,5 hPa 0,0 l/m 5,5 km/h (2 Bft) S 175 0 min 0 W/m 4,2 C 5,1 C 5,5 km/h (2 Bft)
09.12.2007 18:16 5,1 C 94 % 987,5 hPa 0,0 l/m 8,9 km/h (2 Bft) S 170 0 min 0 W/m 4,2 C 3,0 C 8,9 km/h (2 Bft)
09.12.2007 18:21 4,9 C 94 % 987,5 hPa 0,0 l/m 6,7 km/h (2 Bft) S-SO 165 0 min 0 W/m 4,0 C 4,7 C 6,7 km/h (2 Bft)
09.12.2007 18:26 4,9 C 94 % 987,5 hPa 0,0 l/m 6,3 km/h (2 Bft) S 175 0 min 0 W/m 4,0 C 4,9 C 6,3 km/h (2 Bft)
09.12.2007 18:31 4,9 C 94 % 987,5 hPa 0,0 l/m 6,7 km/h (2 Bft) S 180 0 min 0 W/m 4,0 C 4,7 C 6,7 km/h (2 Bft)
09.12.2007 18:36 4,9 C 94 % 987,5 hPa 0,0 l/m 8,1 km/h (2 Bft) S 175 0 min 0 W/m 4,0 C 3,4 C 8,1 km/h (2 Bft)
09.12.2007 18:41 4,9 C 94 % 987,5 hPa 0,0 l/m 8,3 km/h (2 Bft) S 180 0 min 0 W/m 4,0 C 3,3 C 8,3 km/h (2 Bft)
09.12.2007 18:46 4,9 C 95 % 987,5 hPa 0,0 l/m 9,6 km/h (2 Bft) S 170 0 min 0 W/m 4,2 C 2,2 C 9,6 km/h (2 Bft)
09.12.2007 18:51 4,8 C 95 % 987,5 hPa 0,0 l/m 7,6 km/h (2 Bft) S-SO 165 0 min 0 W/m 4,1 C 3,7 C 7,6 km/h (2 Bft)
09.12.2007 18:56 4,7 C 95 % 987,5 hPa 0,0 l/m 7,6 km/h (2 Bft) S-SO 165 0 min 0 W/m 4,0 C 3,6 C 7,6 km/h (2 Bft)
09.12.2007 19:01 4,7 C 95 % 987,5 hPa 0,0 l/m 6,6 km/h (2 Bft) S-SO 165 0 min 0 W/m 4,0 C 4,5 C 6,6 km/h (2 Bft)
09.12.2007 19:06 4,7 C 95 % 987,5 hPa 0,0 l/m 6,5 km/h (2 Bft) S 170 0 min 0 W/m 4,0 C 4,6 C 6,5 km/h (2 Bft)
09.12.2007 19:11 4,7 C 95 % 987,5 hPa 0,0 l/m 10,0 km/h (2 Bft) S-SO 165 0 min 0 W/m 4,0 C 1,7 C 10,0 km/h (2 Bft)
09.12.2007 19:16 4,6 C 95 % 987,5 hPa 0,0 l/m 7,0 km/h (2 Bft) S 175 0 min 0 W/m 3,9 C 4,1 C 7,0 km/h (2 Bft)
09.12.2007 19:21 4,6 C 95 % 987,5 hPa 0,0 l/m 7,0 km/h (2 Bft) S 175 0 min 0 W/m 3,9 C 4,1 C 7,0 km/h (2 Bft)
09.12.2007 19:26 4,5 C 95 % 987,5 hPa 0,0 l/m 7,6 km/h (2 Bft) S 185 0 min 0 W/m 3,8 C 3,4 C 7,6 km/h (2 Bft)
09.12.2007 19:31 4,5 C 95 % 987,5 hPa 0,0 l/m 6,8 km/h (2 Bft) S 180 0 min 0 W/m 3,8 C 4,2 C 6,8 km/h (2 Bft)
09.12.2007 19:36 4,4 C 95 % 987,5 hPa 0,0 l/m 7,8 km/h (2 Bft) S 175 0 min 0 W/m 3,7 C 3,1 C 7,8 km/h (2 Bft)
09.12.2007 19:41 4,4 C 95 % 988,5 hPa 0,0 l/m 7,8 km/h (2 Bft) S 175 0 min 0 W/m 3,7 C 3,1 C 7,8 km/h (2 Bft)
09.12.2007 19:46 4,4 C 95 % 988,5 hPa 0,0 l/m 7,8 km/h (2 Bft) S 170 0 min 0 W/m 3,7 C 3,1 C 7,8 km/h (2 Bft)
09.12.2007 19:51 4,4 C 95 % 988,5 hPa 0,0 l/m 7,2 km/h (2 Bft) S 180 0 min 0 W/m 3,7 C 3,7 C 7,2 km/h (2 Bft)
09.12.2007 19:56 4,3 C 95 % 988,5 hPa 0,0 l/m 7,2 km/h (2 Bft) S 180 0 min 0 W/m 3,6 C 3,6 C 7,2 km/h (2 Bft)
09.12.2007 20:01 4,3 C 95 % 988,5 hPa 0,0 l/m 6,2 km/h (2 Bft) S 180 0 min 0 W/m 3,6 C 4,3 C 6,2 km/h (2 Bft)
09.12.2007 20:06 4,2 C 95 % 988,5 hPa 0,0 l/m 7,4 km/h (2 Bft) S 170 0 min 0 W/m 3,5 C 3,3 C 7,4 km/h (2 Bft)
09.12.2007 20:11 4,2 C 96 % 988,5 hPa 0,0 l/m 7,9 km/h (2 Bft) S-SO 160 0 min 0 W/m 3,6 C 2,8 C 7,9 km/h (2 Bft)
09.12.2007 20:16 4,3 C 96 % 988,5 hPa 0,0 l/m 8,3 km/h (2 Bft) S-SO 165 0 min 0 W/m 3,7 C 2,6 C 8,3 km/h (2 Bft)
09.12.2007 20:21 4,3 C 96 % 988,5 hPa 0,0 l/m 6,5 km/h (2 Bft) S 185 0 min 0 W/m 3,7 C 4,2 C 6,5 km/h (2 Bft)
09.12.2007 20:26 4,3 C 96 % 988,5 hPa 0,0 l/m 6,1 km/h (2 Bft) S 185 0 min 0 W/m 3,7 C 4,3 C 6,1 km/h (2 Bft)
09.12.2007 20:31 4,3 C 96 % 988,5 hPa 0,0 l/m 9,6 km/h (2 Bft) S 180 0 min 0 W/m 3,7 C 1,6 C 9,6 km/h (2 Bft)
09.12.2007 20:36 4,4 C 96 % 988,5 hPa 0,0 l/m 9,7 km/h (2 Bft) S 170 0 min 0 W/m 3,8 C 1,6 C 9,7 km/h (2 Bft)
09.12.2007 20:41 4,5 C 96 % 988,5 hPa 0,0 l/m 6,6 km/h (2 Bft) S-SO 165 0 min 0 W/m 3,9 C 4,3 C 6,6 km/h (2 Bft)
09.12.2007 20:46 4,5 C 96 % 988,5 hPa 0,0 l/m 9,2 km/h (2 Bft) S 170 0 min 0 W/m 3,9 C 2,1 C 9,2 km/h (2 Bft)
09.12.2007 20:51 4,6 C 96 % 988,5 hPa 0,0 l/m 8,1 km/h (2 Bft) S 180 0 min 0 W/m 4,0 C 3,1 C 8,1 km/h (2 Bft)
09.12.2007 20:56 4,7 C 96 % 988,5 hPa 0,0 l/m 8,5 km/h (2 Bft) S 180 0 min 0 W/m 4,1 C 2,9 C 8,5 km/h (2 Bft)
09.12.2007 21:01 4,7 C 96 % 988,5 hPa 0,0 l/m 4,6 km/h (1 Bft) S 175 0 min 0 W/m 4,1 C 4,7 C 4,6 km/h (1 Bft)
09.12.2007 21:06 4,7 C 96 % 988,5 hPa 0,0 l/m 5,0 km/h (1 Bft) S 175 0 min 0 W/m 4,1 C 4,7 C 5,0 km/h (1 Bft)
09.12.2007 21:11 4,8 C 96 % 988,5 hPa 0,0 l/m 5,0 km/h (1 Bft) S 175 0 min 0 W/m 4,2 C 4,8 C 5,0 km/h (1 Bft)
09.12.2007 21:16 4,8 C 96 % 988,5 hPa 0,0 l/m 3,8 km/h (1 Bft) S-SO 165 0 min 0 W/m 4,2 C 4,8 C 3,8 km/h (1 Bft)
09.12.2007 21:21 4,8 C 96 % 988,5 hPa 0,0 l/m 7,8 km/h (2 Bft) S 170 0 min 0 W/m 4,2 C 3,6 C 7,8 km/h (2 Bft)
09.12.2007 21:26 4,9 C 96 % 988,5 hPa 0,0 l/m 9,9 km/h (2 Bft) S-SO 165 0 min 0 W/m 4,3 C 2,0 C 9,9 km/h (2 Bft)
09.12.2007 21:31 4,9 C 96 % 988,5 hPa 0,0 l/m 9,3 km/h (2 Bft) S 170 0 min 0 W/m 4,3 C 2,5 C 9,3 km/h (2 Bft)
09.12.2007 21:36 4,9 C 96 % 988,5 hPa 0,0 l/m 5,6 km/h (2 Bft) S 170 0 min 0 W/m 4,3 C 4,9 C 5,6 km/h (2 Bft)
09.12.2007 21:41 5,1 C 96 % 988,5 hPa 0,0 l/m 5,6 km/h (2 Bft) S 170 0 min 0 W/m 4,5 C 5,1 C 5,6 km/h (2 Bft)
09.12.2007 21:46 5,1 C 96 % 988,5 hPa 0,0 l/m 5,6 km/h (2 Bft) S 170 0 min 0 W/m 4,5 C 5,1 C 5,6 km/h (2 Bft)
09.12.2007 21:51 5,2 C 96 % 988,5 hPa 0,0 l/m 9,0 km/h (2 Bft) S-SO 160 0 min 0 W/m 4,6 C 3,0 C 9,0 km/h (2 Bft)
09.12.2007 21:56 5,2 C 96 % 988,5 hPa 0,0 l/m 9,2 km/h (2 Bft) S-SO 160 0 min 0 W/m 4,6 C 2,9 C 9,2 km/h (2 Bft)
09.12.2007 22:01 5,2 C 96 % 988,5 hPa 0,0 l/m 7,9 km/h (2 Bft) S-SO 165 0 min 0 W/m 4,6 C 3,9 C 7,9 km/h (2 Bft)
09.12.2007 22:06 5,2 C 96 % 988,5 hPa 0,0 l/m 9,1 km/h (2 Bft) S-SO 160 0 min 0 W/m 4,6 C 2,9 C 9,1 km/h (2 Bft)
09.12.2007 22:11 5,2 C 96 % 988,5 hPa 0,0 l/m 10,8 km/h (2 Bft) S 180 0 min 0 W/m 4,6 C 1,7 C 10,8 km/h (2 Bft)
09.12.2007 22:16 5,2 C 96 % 988,5 hPa 0,0 l/m 10,6 km/h (2 Bft) S 170 0 min 0 W/m 4,6 C 1,9 C 10,6 km/h (2 Bft)
09.12.2007 22:21 4,9 C 96 % 988,5 hPa 0,0 l/m 22,7 km/h (4 Bft) S 175 0 min 0 W/m 4,3 C -4,3 C 22,7 km/h (4 Bft)
09.12.2007 22:26 4,9 C 96 % 988,5 hPa 0,0 l/m 8,8 km/h (2 Bft) S 170 0 min 0 W/m 4,3 C 2,9 C 8,8 km/h (2 Bft)
09.12.2007 22:31 4,8 C 96 % 988,5 hPa 0,0 l/m 10,5 km/h (2 Bft) S 170 0 min 0 W/m 4,2 C 1,5 C 10,5 km/h (2 Bft)
09.12.2007 22:36 4,8 C 96 % 988,5 hPa 0,0 l/m 11,9 km/h (2 Bft) S-SO 160 0 min 0 W/m 4,2 C 0,6 C 11,9 km/h (2 Bft)
09.12.2007 22:41 4,7 C 96 % 988,5 hPa 0,0 l/m 8,2 km/h (2 Bft) S-SO 165 0 min 0 W/m 4,1 C 3,1 C 8,2 km/h (2 Bft)
09.12.2007 22:46 4,7 C 96 % 988,5 hPa 0,0 l/m 7,2 km/h (2 Bft) S-SO 160 0 min 0 W/m 4,1 C 4,0 C 7,2 km/h (2 Bft)
09.12.2007 22:51 4,5 C 96 % 988,5 hPa 0,0 l/m 8,0 km/h (2 Bft) S-SO 155 0 min 0 W/m 3,9 C 3,1 C 8,0 km/h (2 Bft)
09.12.2007 22:56 4,5 C 96 % 989,5 hPa 0,0 l/m 6,2 km/h (2 Bft) S-SO 160 0 min 0 W/m 3,9 C 4,5 C 6,2 km/h (2 Bft)
09.12.2007 23:01 4,3 C 96 % 989,5 hPa 0,0 l/m 5,2 km/h (1 Bft) S-SO 160 0 min 0 W/m 3,7 C 4,3 C 5,2 km/h (1 Bft)
09.12.2007 23:06 4,1 C 96 % 989,5 hPa 0,0 l/m 8,1 km/h (2 Bft) S-SO 160 0 min 0 W/m 3,5 C 2,6 C 8,1 km/h (2 Bft)
09.12.2007 23:11 4,1 C 96 % 989,5 hPa 0,0 l/m 6,8 km/h (2 Bft) S-SO 160 0 min 0 W/m 3,5 C 3,7 C 6,8 km/h (2 Bft)
09.12.2007 23:16 3,9 C 96 % 989,5 hPa 0,0 l/m 8,7 km/h (2 Bft) S-SO 165 0 min 0 W/m 3,3 C 1,9 C 8,7 km/h (2 Bft)
09.12.2007 23:21 3,9 C 96 % 989,5 hPa 0,0 l/m 11,5 km/h (2 Bft) S-SO 165 0 min 0 W/m 3,3 C -0,2 C 11,5 km/h (2 Bft)
09.12.2007 23:26 3,9 C 96 % 989,5 hPa 0,0 l/m 8,9 km/h (2 Bft) S-SO 165 0 min 0 W/m 3,3 C 1,7 C 8,9 km/h (2 Bft)
09.12.2007 23:31 3,9 C 96 % 989,5 hPa 0,3 l/m 8,7 km/h (2 Bft) S-SO 150 0 min 0 W/m 3,3 C 1,9 C 8,7 km/h (2 Bft)
09.12.2007 23:36 3,9 C 96 % 989,5 hPa 0,0 l/m 9,3 km/h (2 Bft) S-SO 150 0 min 0 W/m 3,3 C 1,4 C 9,3 km/h (2 Bft)
09.12.2007 23:41 3,8 C 96 % 989,5 hPa 0,0 l/m 8,6 km/h (2 Bft) S-SO 160 0 min 0 W/m 3,2 C 1,8 C 8,6 km/h (2 Bft)
09.12.2007 23:46 3,8 C 96 % 989,5 hPa 0,0 l/m 7,3 km/h (2 Bft) S-SO 150 0 min 0 W/m 3,2 C 3,0 C 7,3 km/h (2 Bft)
09.12.2007 23:51 3,6 C 96 % 989,5 hPa 0,0 l/m 5,0 km/h (1 Bft) S-SO 160 0 min 0 W/m 3,0 C 3,6 C 5,0 km/h (1 Bft)
09.12.2007 23:56 3,5 C 96 % 989,5 hPa 0,0 l/m 7,6 km/h (2 Bft) S-SO 160 0 min 0 W/m 2,9 C 2,4 C 7,6 km/h (2 Bft)
_ Min-Zeit 23:56 10:31 04:41 - 21:16 - - - - 00:06 00:41 21:16
Minimum _ 3,5 C 86 % 980,5 hPa - 3,8 km/h (1 Bft) - - - - 2,6 C -9,6 C 3,8 km/h (1 Bft)
_ Max-Zeit 09:56 09:26 22:56 00:56 00:41 - - 00:01 00:01 09:31 16:51 00:41
Maximum _ 9,6 C 99 % 989,5 hPa 0,3 l/m 41,2 km/h
S (6 Bft)
- - 0 min 0 W/m 8,0 C 6,1 C 41,2 km/h
S (6 Bft)
Durchschnitt _ 5,9 C 94 % 985,1 hPa #4,8 l/m 17,9 km/h (3 Bft) W-SW - #0 min. 0 W/m 5,0 C -0,3 C 17,9 km/h (3 Bft)
copyright by Holger Just